createdAt,value
2019-05-05T00:02:04.475Z,77.70
2019-05-05T00:07:34.901Z,77.60
2019-05-05T00:13:05.916Z,77.60
2019-05-05T00:18:35.268Z,77.50
2019-05-05T00:24:06.631Z,77.50
2019-05-05T00:29:35.910Z,77.50
2019-05-05T00:35:07.525Z,77.50
2019-05-05T00:40:36.881Z,77.60
2019-05-05T00:46:19.371Z,77.80
2019-05-05T00:51:48.922Z,77.80
2019-05-05T00:57:18.188Z,77.80
2019-05-05T01:02:49.211Z,77.90
2019-05-05T01:08:24.952Z,78.00
2019-05-05T01:13:55.303Z,78.00
2019-05-05T01:19:24.573Z,78.10
2019-05-05T01:24:55.376Z,78.20
2019-05-05T01:30:26.762Z,78.30
2019-05-05T01:35:56.127Z,78.20
2019-05-05T01:41:35.836Z,78.20
2019-05-05T01:47:05.469Z,78.20
2019-05-05T01:52:35.046Z,78.30
2019-05-05T01:58:05.883Z,78.30
2019-05-05T02:03:35.552Z,78.30
2019-05-05T02:09:06.911Z,78.30
2019-05-05T02:14:36.175Z,78.30
2019-05-05T02:20:10.220Z,78.40
2019-05-05T02:25:39.572Z,78.30
2019-05-05T02:31:10.567Z,78.60
2019-05-05T02:36:39.831Z,78.50
2019-05-05T02:42:09.566Z,78.70
2019-05-05T02:47:47.461Z,78.50
2019-05-05T02:53:16.736Z,78.70
2019-05-05T02:58:49.662Z,78.60
2019-05-05T03:04:20.168Z,78.70
2019-05-05T03:09:54.414Z,78.60
2019-05-05T03:16:18.672Z,78.60
2019-05-05T03:21:48.086Z,78.50
2019-05-05T03:27:17.597Z,78.50
2019-05-05T03:32:47.860Z,78.60
2019-05-05T03:38:17.277Z,78.60
2019-05-05T03:44:04.853Z,78.60
2019-05-05T03:49:34.321Z,78.70
2019-05-05T03:55:06.630Z,79.00
2019-05-05T04:01:04.944Z,78.60
2019-05-05T04:06:37.472Z,78.60
2019-05-05T04:12:09.002Z,78.60
2019-05-05T04:17:39.929Z,79.20
2019-05-05T04:23:09.200Z,78.60
2019-05-05T04:28:38.484Z,78.60
2019-05-05T04:34:07.782Z,78.60
2019-05-05T04:39:37.164Z,78.60
2019-05-05T04:45:08.297Z,78.60
2019-05-05T04:50:39.168Z,78.50
2019-05-05T04:56:08.447Z,79.30
2019-05-05T05:01:37.715Z,78.40
2019-05-05T05:07:07.816Z,78.30
2019-05-05T05:12:37.103Z,78.40
2019-05-05T05:18:10.693Z,78.20
2019-05-05T05:23:39.975Z,78.30
2019-05-05T05:29:09.265Z,78.30
2019-05-05T05:34:40.584Z,78.30
2019-05-05T05:40:14.644Z,78.30
2019-05-05T05:45:54.368Z,78.20
2019-05-05T05:51:24.038Z,78.00
2019-05-05T05:56:53.872Z,77.90
2019-05-05T06:02:24.299Z,77.90
2019-05-05T06:07:54.438Z,77.70
2019-05-05T06:13:26.962Z,77.80
2019-05-05T06:18:56.313Z,77.70
2019-05-05T06:24:25.670Z,77.70
2019-05-05T06:29:54.952Z,77.80
2019-05-05T06:35:26.247Z,77.50
2019-05-05T06:41:14.692Z,77.50
2019-05-05T06:47:01.716Z,77.30
2019-05-05T06:52:41.906Z,77.40
2019-05-05T06:58:04.588Z,77.30
2019-05-05T07:03:33.992Z,77.20
2019-05-05T07:09:05.348Z,76.90
2019-05-05T07:14:34.549Z,76.90
2019-05-05T07:20:10.849Z,76.80
2019-05-05T07:25:43.141Z,76.90
2019-05-05T07:31:11.169Z,76.60
2019-05-05T07:36:44.326Z,77.00
2019-05-05T07:42:24.173Z,76.20
2019-05-05T07:47:54.369Z,76.10
2019-05-05T07:53:24.453Z,75.70
2019-05-05T07:58:54.800Z,75.50
2019-05-05T08:04:24.410Z,75.40
2019-05-05T08:09:53.905Z,75.10
2019-05-05T08:15:24.896Z,74.90
2019-05-05T08:20:55.808Z,74.60
2019-05-05T08:26:30.515Z,74.60
2019-05-05T08:32:13.737Z,74.30
2019-05-05T08:37:43.609Z,74.10
2019-05-05T08:43:19.041Z,73.80
2019-05-05T08:48:49.300Z,73.20
2019-05-05T08:54:18.750Z,73.00
2019-05-05T08:59:49.031Z,72.60
2019-05-05T09:05:18.671Z,72.40
2019-05-05T09:10:52.262Z,72.20
2019-05-05T09:16:20.737Z,72.10
2019-05-05T09:21:54.136Z,71.70
2019-05-05T09:27:33.853Z,71.40
2019-05-05T09:33:09.183Z,74.50
2019-05-05T09:38:38.476Z,71.50
2019-05-05T09:44:07.757Z,70.70
2019-05-05T09:49:38.039Z,70.30
2019-05-05T09:55:08.330Z,69.30
2019-05-05T10:00:40.526Z,68.90
2019-05-05T10:06:09.789Z,68.20
2019-05-05T10:11:41.260Z,67.80
2019-05-05T10:17:14.168Z,67.20
2019-05-05T10:22:45.165Z,66.90
2019-05-05T10:28:14.491Z,66.30
2019-05-05T10:33:45.419Z,66.00
2019-05-05T10:39:16.345Z,65.10
2019-05-05T10:44:45.685Z,64.80
2019-05-05T10:50:15.109Z,64.90
2019-05-05T10:55:45.421Z,64.50
2019-05-05T11:01:14.850Z,63.80
2019-05-05T11:06:44.286Z,63.10
2019-05-05T11:12:16.721Z,62.80
2019-05-05T11:17:46.065Z,61.20
2019-05-05T11:23:15.540Z,61.50
2019-05-05T11:28:44.847Z,60.90
2019-05-05T11:34:18.711Z,60.40
2019-05-05T11:39:49.985Z,61.70
2019-05-05T11:45:19.242Z,61.60
2019-05-05T11:52:28.612Z,62.20
2019-05-05T11:56:25.789Z,61.70
2019-05-05T12:01:55.289Z,61.70
2019-05-05T12:07:24.534Z,62.10
2019-05-05T12:12:53.820Z,62.30
2019-05-05T12:18:23.750Z,61.70
2019-05-05T12:24:03.829Z,61.20
2019-05-05T12:29:34.907Z,61.50
2019-05-05T12:35:06.006Z,61.90
2019-05-05T12:40:36.343Z,61.20
2019-05-05T12:46:24.282Z,61.80
2019-05-05T12:51:54.147Z,63.50
2019-05-05T12:57:24.087Z,64.70
2019-05-05T13:02:53.905Z,64.50
2019-05-05T13:08:26.190Z,64.80
2019-05-05T13:13:55.552Z,64.80
2019-05-05T13:19:34.712Z,63.90
2019-05-05T13:25:08.521Z,64.30
2019-05-05T13:30:37.869Z,64.70
2019-05-05T13:36:07.598Z,66.10
2019-05-05T13:41:37.178Z,67.10
2019-05-05T13:47:06.543Z,67.90
2019-05-05T13:52:36.405Z,68.10
2019-05-05T13:58:08.675Z,68.00
2019-05-05T14:03:37.865Z,68.40
2019-05-05T14:09:09.777Z,68.00
2019-05-05T14:14:40.525Z,68.00
2019-05-05T14:20:12.133Z,68.10
2019-05-05T14:25:43.974Z,68.20
2019-05-05T14:31:15.223Z,67.00
2019-05-05T14:36:53.600Z,66.70
2019-05-05T14:42:23.610Z,65.60
2019-05-05T14:47:53.508Z,62.30
2019-05-05T14:53:46.400Z,61.40
2019-05-05T14:59:15.730Z,62.00
2019-05-05T15:04:45.043Z,63.10
2019-05-05T15:10:25.176Z,63.50
2019-05-05T15:15:54.758Z,64.20
2019-05-05T15:21:24.131Z,63.40
2019-05-05T15:26:54.955Z,64.00
2019-05-05T15:32:24.599Z,65.10
2019-05-05T15:37:54.642Z,65.50
2019-05-05T15:43:24.932Z,66.20
2019-05-05T15:48:56.148Z,66.20
2019-05-05T15:54:25.676Z,66.30
2019-05-05T15:59:55.170Z,66.40
2019-05-05T16:05:29.607Z,66.80
2019-05-05T16:10:59.109Z,66.60
2019-05-05T16:16:55.598Z,66.30
2019-05-05T16:22:29.962Z,66.50
2019-05-05T16:28:14.524Z,66.80
2019-05-05T16:33:44.213Z,66.70
2019-05-05T16:39:16.360Z,67.30
2019-05-05T16:44:45.177Z,66.70
2019-05-05T16:50:15.718Z,66.80
2019-05-05T16:55:50.117Z,65.60
2019-05-05T17:01:19.581Z,64.10
2019-05-05T17:06:48.958Z,61.80
2019-05-05T17:12:18.679Z,61.90
2019-05-05T17:18:05.299Z,62.00
2019-05-05T17:23:43.341Z,62.50
2019-05-05T17:29:14.709Z,63.30
2019-05-05T17:34:44.881Z,63.30
2019-05-05T17:40:16.337Z,62.90
2019-05-05T17:46:05.221Z,62.80
2019-05-05T17:51:43.530Z,63.00
2019-05-05T17:57:14.217Z,62.80
2019-05-05T18:02:43.866Z,62.90
2019-05-05T18:08:31.006Z,63.00
2019-05-05T18:14:07.885Z,63.10
2019-05-05T18:19:37.217Z,63.30
2019-05-05T18:25:07.265Z,63.60
2019-05-05T18:30:36.570Z,64.10
2019-05-05T18:36:05.915Z,64.20
2019-05-05T18:41:36.899Z,64.40
2019-05-05T18:47:34.076Z,64.60
2019-05-05T18:53:18.068Z,64.80
2019-05-05T18:58:50.290Z,65.20
2019-05-05T19:05:07.746Z,65.10
2019-05-05T19:10:54.069Z,65.50
2019-05-05T19:16:23.647Z,65.60
2019-05-05T19:21:59.410Z,65.70
2019-05-05T19:27:36.393Z,65.60
2019-05-05T19:33:06.072Z,65.70
2019-05-05T19:38:36.352Z,65.30
2019-05-05T19:44:05.809Z,65.20
2019-05-05T19:49:35.053Z,65.30
2019-05-05T19:55:13.724Z,65.30
2019-05-05T20:00:41.224Z,65.10
2019-05-05T20:06:10.467Z,65.00
2019-05-05T20:11:47.708Z,65.00
2019-05-05T20:17:21.422Z,65.10
2019-05-05T20:22:50.697Z,65.00
2019-05-05T20:28:20.408Z,65.20
2019-05-05T20:34:04.337Z,65.20
2019-05-05T20:39:34.519Z,65.50
2019-05-05T20:45:08.516Z,65.70
2019-05-05T20:50:37.986Z,65.80
2019-05-05T20:56:09.894Z,65.30
2019-05-05T21:01:49.107Z,66.40
2019-05-05T21:07:19.519Z,66.20
2019-05-05T21:12:49.861Z,66.20
2019-05-05T21:18:19.221Z,66.60
2019-05-05T21:23:54.458Z,65.90
2019-05-05T21:29:23.845Z,65.50
2019-05-05T21:35:14.241Z,65.70
2019-05-05T21:40:45.751Z,65.60
2019-05-05T21:46:18.713Z,65.60
2019-05-05T21:51:49.645Z,65.40
2019-05-05T21:57:23.371Z,65.60
2019-05-05T22:02:53.994Z,68.60
2019-05-05T22:08:25.282Z,67.70
2019-05-05T22:13:54.557Z,67.60
2019-05-05T22:19:26.751Z,67.90
2019-05-05T22:24:56.024Z,67.90
2019-05-05T22:30:27.655Z,67.00
2019-05-05T22:35:56.928Z,67.20
2019-05-05T22:41:26.203Z,67.80
2019-05-05T22:46:55.559Z,67.10
2019-05-05T22:52:25.544Z,66.60
2019-05-05T22:57:54.907Z,66.20
2019-05-05T23:03:34.650Z,65.90
2019-05-05T23:09:04.975Z,65.50
2019-05-05T23:14:34.455Z,65.60
2019-05-05T23:20:13.497Z,66.30
2019-05-05T23:25:54.729Z,65.40
2019-05-05T23:31:24.230Z,65.20
2019-05-05T23:36:53.686Z,65.50
2019-05-05T23:42:24.021Z,65.20
2019-05-05T23:47:54.420Z,65.10
2019-05-05T23:53:24.876Z,65.10
2019-05-05T23:58:55.077Z,65.70
